メインページ
METAR-TAF:

METAR-TAF

空港 :

パルマ・デ・マリョルカ, スペイン

パルマ・デ・マヨルカ空港

緯度: 39-33N, 経度: 002-44E, 海抜: 4m

現時点の気象観測

当レポートは23分前の07:30(UTC)に作成
無風
気温 5°C
湿度 100%
気圧 1023 hPa
視程10km以上
高度100ftの雲はほとんどない

METAR: LEPA 200730Z 00000KT 9999 FEW001 05/05 Q1023 NOSIG

時間: 08:53 (07:53 UTC)

予報

当レポートは2時間53分前の05:00(UTC)に作成
予報は20日の 06時(UTC)から 21日の 06時(UTC)まで有効
変向風 3kt
視程10km以上
高度2500ftの雲はほとんどない
20日の 10時(UTC)から 20日の 12時(UTC)まで徐々に
南西の風 8kt
20日の 17時(UTC)から 20日の 19時(UTC)まで徐々に
変向風 3kt

TAF: LEPA 200500Z 2006/2106 VRB03KT 9999 FEW025 TX20/2012Z TN06/2106Z BECMG 2010/2012 22008KT BECMG 2017/2019 VRB03KT

4,000以上の空港の気象観測と天気予報(METAR報とTAF報)

利用可能な観測所は地図上に黄色い丸と赤い丸で示す。

丸の上にカーソルを重ねると観測所名を参照できる。

次にクリックすると気象観測と天気予報を参照できる。

マップの切り替え:黒色「×」印の緑ボタンをクリックして拡大、「-」印の緑ボタンをクリックして縮小、緑色の三角印をクリックして隣りの地図に切り替え


METAR-TAF: